createdAt,value
2022-12-31T00:00:23.007Z,98307.34
2022-12-31T00:02:49.986Z,98311.00
2022-12-31T00:05:17.068Z,98317.63
2022-12-31T00:07:44.028Z,98322.94
2022-12-31T00:10:11.750Z,98326.69
2022-12-31T00:12:38.647Z,98336.53
2022-12-31T00:15:06.297Z,98329.88
2022-12-31T00:17:33.264Z,98338.75
2022-12-31T00:20:00.301Z,98337.38
2022-12-31T00:22:27.946Z,98351.44
2022-12-31T00:24:54.862Z,98356.84
2022-12-31T00:27:22.777Z,98361.28
2022-12-31T00:29:49.769Z,98369.38
2022-12-31T00:32:16.688Z,98379.94
2022-12-31T00:34:43.683Z,98382.72
2022-12-31T00:37:10.663Z,98389.94
2022-12-31T00:39:37.636Z,98387.44
2022-12-31T00:42:04.781Z,98397.16
2022-12-31T00:44:31.820Z,98404.41
2022-12-31T00:46:58.771Z,98400.22
2022-12-31T00:49:25.710Z,98409.69
2022-12-31T00:51:52.594Z,98416.06
2022-12-31T00:54:19.513Z,98418.81
2022-12-31T00:56:46.536Z,98423.41
2022-12-31T00:59:13.397Z,98437.47
2022-12-31T01:01:42.245Z,98435.78
2022-12-31T01:04:12.735Z,98443.00
2022-12-31T01:06:40.194Z,98443.00
2022-12-31T01:09:07.959Z,98450.94
2022-12-31T01:11:35.070Z,98456.38
2022-12-31T01:14:20.897Z,98445.22
2022-12-31T01:16:52.718Z,98453.16
2022-12-31T01:19:25.569Z,98455.78
2022-12-31T01:21:53.573Z,98454.25
2022-12-31T01:24:21.147Z,98452.47
2022-12-31T01:26:48.081Z,98454.09
2022-12-31T01:29:14.978Z,98448.13
2022-12-31T01:31:41.898Z,98441.31
2022-12-31T01:34:08.814Z,98449.41
2022-12-31T01:36:37.439Z,98450.09
2022-12-31T01:39:06.568Z,98446.75
2022-12-31T01:41:37.728Z,98457.16
2022-12-31T01:44:13.641Z,98472.16
2022-12-31T01:46:49.935Z,98471.31
2022-12-31T01:49:33.165Z,98476.91
2022-12-31T01:52:21.073Z,98479.41
2022-12-31T01:54:55.987Z,98484.66
2022-12-31T01:57:24.989Z,98486.47
2022-12-31T01:59:53.582Z,98498.81
2022-12-31T02:02:20.664Z,98504.94
2022-12-31T02:04:51.284Z,98507.47
2022-12-31T02:07:18.110Z,98512.75
2022-12-31T02:09:45.211Z,98516.34
2022-12-31T02:12:12.309Z,98524.28
2022-12-31T02:14:52.196Z,98533.16
2022-12-31T02:17:46.079Z,98538.31
2022-12-31T02:20:40.459Z,98543.59
2022-12-31T02:23:39.488Z,98547.06
2022-12-31T02:26:12.505Z,98545.25
2022-12-31T02:28:45.093Z,98541.66
2022-12-31T02:31:23.071Z,98539.16
2022-12-31T02:34:07.754Z,98549.72
2022-12-31T02:36:38.642Z,98549.84
2022-12-31T02:39:07.868Z,98558.34
2022-12-31T02:41:54.074Z,98560.97
2022-12-31T02:44:28.581Z,98562.66
2022-12-31T02:47:16.694Z,98558.34
2022-12-31T02:49:53.290Z,98552.78
2022-12-31T02:52:44.136Z,98557.63
2022-12-31T02:55:26.581Z,98571.53
2022-12-31T02:58:19.094Z,98586.41
2022-12-31T03:01:10.155Z,98586.41
2022-12-31T03:03:38.457Z,98590.72
2022-12-31T03:06:08.114Z,98583.78
2022-12-31T03:08:56.152Z,98594.19
2022-12-31T03:11:41.857Z,98593.34
2022-12-31T03:14:08.715Z,98590.72
2022-12-31T03:16:35.590Z,98591.69
2022-12-31T03:19:21.112Z,98597.94
2022-12-31T03:22:06.768Z,98601.28
2022-12-31T03:24:52.075Z,98611.84
2022-12-31T03:27:18.901Z,98616.16
2022-12-31T03:29:45.759Z,98618.09
2022-12-31T03:32:12.744Z,98618.09
2022-12-31T03:34:39.585Z,98616.41
2022-12-31T03:37:06.426Z,98612.81
2022-12-31T03:39:33.254Z,98617.13
2022-12-31T03:42:00.167Z,98614.47
2022-12-31T03:44:26.973Z,98625.03
2022-12-31T03:46:53.884Z,98633.22
2022-12-31T03:49:20.717Z,98639.22
2022-12-31T03:51:47.550Z,98646.31
2022-12-31T03:54:14.402Z,98640.28
2022-12-31T03:56:41.254Z,98644.50
2022-12-31T03:59:08.064Z,98645.47
2022-12-31T04:01:34.944Z,98636.69
2022-12-31T04:04:01.845Z,98641.88
2022-12-31T04:06:28.636Z,98640.19
2022-12-31T04:08:55.482Z,98647.16
2022-12-31T04:11:22.313Z,98653.38
2022-12-31T04:13:49.145Z,98648.94
2022-12-31T04:16:15.977Z,98656.03
2022-12-31T04:18:42.851Z,98652.28
2022-12-31T04:21:09.700Z,98657.72
2022-12-31T04:23:36.552Z,98665.50
2022-12-31T04:26:03.409Z,98665.63
2022-12-31T04:28:30.224Z,98661.31
2022-12-31T04:30:57.062Z,98667.03
2022-12-31T04:33:23.870Z,98664.38
2022-12-31T04:35:50.702Z,98665.34
2022-12-31T04:38:17.751Z,98665.34
2022-12-31T04:41:04.108Z,98663.00
2022-12-31T04:43:31.791Z,98670.63
2022-12-31T04:45:58.667Z,98676.91
2022-12-31T04:48:25.546Z,98681.19
2022-12-31T04:50:52.568Z,98682.03
2022-12-31T04:53:19.401Z,98685.50
2022-12-31T04:55:46.369Z,98696.06
2022-12-31T04:58:13.195Z,98694.38
2022-12-31T05:00:40.050Z,98707.59
2022-12-31T05:03:07.020Z,98705.69
2022-12-31T05:05:33.872Z,98707.34
2022-12-31T05:08:00.687Z,98710.22
2022-12-31T05:10:27.705Z,98718.88
2022-12-31T05:12:54.522Z,98717.91
2022-12-31T05:15:21.361Z,98723.19
2022-12-31T05:17:48.154Z,98731.00
2022-12-31T05:20:15.033Z,98730.00
2022-12-31T05:22:41.827Z,98738.78
2022-12-31T05:25:09.249Z,98742.38
2022-12-31T05:27:38.133Z,98738.78
2022-12-31T05:30:06.297Z,98738.78
2022-12-31T05:32:33.922Z,98731.09
2022-12-31T05:35:01.036Z,98744.06
2022-12-31T05:37:31.190Z,98745.28
2022-12-31T05:39:58.314Z,98749.47
2022-12-31T05:42:25.171Z,98749.59
2022-12-31T05:44:52.042Z,98749.59
2022-12-31T05:47:18.917Z,98752.13
2022-12-31T05:49:45.759Z,98761.84
2022-12-31T05:52:12.827Z,98766.97
2022-12-31T05:54:39.824Z,98761.13
2022-12-31T05:57:07.396Z,98765.44
2022-12-31T05:59:34.337Z,98765.31
2022-12-31T06:02:01.336Z,98765.44
2022-12-31T06:04:28.274Z,98762.78
2022-12-31T06:06:55.089Z,98768.78
2022-12-31T06:09:22.431Z,98767.97
2022-12-31T06:11:49.754Z,98765.31
2022-12-31T06:14:16.858Z,98767.97
2022-12-31T06:16:43.700Z,98763.78
2022-12-31T06:19:10.506Z,98765.56
2022-12-31T06:21:37.376Z,98774.44
2022-12-31T06:24:04.603Z,98769.06
2022-12-31T06:26:31.438Z,98781.16
2022-12-31T06:28:58.264Z,98780.56
2022-12-31T06:31:25.113Z,98784.91
2022-12-31T06:33:51.998Z,98784.91
2022-12-31T06:36:19.375Z,98781.28
2022-12-31T06:38:46.272Z,98780.44
2022-12-31T06:41:16.481Z,98789.19
2022-12-31T06:43:43.695Z,98785.72
2022-12-31T06:46:13.277Z,98793.78
2022-12-31T06:48:43.185Z,98795.47
2022-12-31T06:51:17.026Z,98795.47
2022-12-31T06:53:49.826Z,98806.03
2022-12-31T06:56:33.150Z,98801.06
2022-12-31T06:59:01.101Z,98806.22
2022-12-31T07:01:57.381Z,98808.34
2022-12-31T07:04:55.293Z,98797.41
2022-12-31T07:07:31.213Z,98796.16
2022-12-31T07:10:01.793Z,98801.19
2022-12-31T07:12:53.551Z,98804.44
2022-12-31T07:15:37.038Z,98808.72
2022-12-31T07:18:15.647Z,98812.81
2022-12-31T07:20:42.693Z,98811.56
2022-12-31T07:23:09.831Z,98810.72
2022-12-31T07:25:41.341Z,98818.31
2022-12-31T07:28:29.612Z,98822.63
2022-12-31T07:31:29.932Z,98826.09
2022-12-31T07:34:16.702Z,98838.34
2022-12-31T07:36:58.462Z,98838.91
2022-12-31T07:39:43.905Z,98845.88
2022-12-31T07:42:24.508Z,98849.22
2022-12-31T07:45:14.190Z,98851.88
2022-12-31T07:47:41.313Z,98856.06
2022-12-31T07:50:15.253Z,98861.50
2022-12-31T07:52:42.477Z,98879.03
2022-12-31T07:55:11.017Z,98880.44
2022-12-31T07:58:03.638Z,98894.34
2022-12-31T08:00:31.526Z,98889.91
2022-12-31T08:03:23.181Z,98896.03
2022-12-31T08:05:59.736Z,98895.06
2022-12-31T08:08:43.509Z,98902.19
2022-12-31T08:11:35.248Z,98913.84
2022-12-31T08:14:02.706Z,98918.28
2022-12-31T08:16:30.660Z,98928.66
2022-12-31T08:18:57.885Z,98936.25
2022-12-31T08:21:47.568Z,98948.75
2022-12-31T08:24:20.488Z,98947.16
2022-12-31T08:27:05.113Z,98962.91
2022-12-31T08:29:40.835Z,98957.63
2022-12-31T08:32:20.758Z,98951.53
2022-12-31T08:35:15.204Z,98951.66
2022-12-31T08:38:00.924Z,98961.84
2022-12-31T08:40:39.569Z,98957.88
2022-12-31T08:43:18.660Z,98954.03
2022-12-31T08:45:53.604Z,98956.56
2022-12-31T08:48:39.360Z,98963.50
2022-12-31T08:51:07.365Z,98965.06
2022-12-31T08:53:35.227Z,98972.03
2022-12-31T08:56:13.769Z,98976.09
2022-12-31T08:58:52.757Z,98969.16
2022-12-31T09:01:27.556Z,98984.47
2022-12-31T09:04:14.363Z,98986.63
2022-12-31T09:07:03.109Z,98985.53
2022-12-31T09:10:03.725Z,98990.56
2022-12-31T09:12:30.574Z,99004.63
2022-12-31T09:15:08.255Z,99005.06
2022-12-31T09:17:51.113Z,99014.94
2022-12-31T09:20:41.865Z,99024.41
2022-12-31T09:23:11.703Z,99032.50
2022-12-31T09:25:47.195Z,99044.41
2022-12-31T09:28:26.956Z,99052.81
2022-12-31T09:31:26.658Z,99053.38
2022-12-31T09:34:16.759Z,99056.63
2022-12-31T09:36:53.088Z,99062.50
2022-12-31T09:39:28.306Z,99057.94
2022-12-31T09:42:11.928Z,99062.97
2022-12-31T09:44:47.856Z,99076.91
2022-12-31T09:47:29.209Z,99081.94
2022-12-31T09:50:01.844Z,99077.34
2022-12-31T09:52:51.564Z,99085.03
2022-12-31T09:55:34.295Z,99082.25
2022-12-31T09:58:19.864Z,99098.72
2022-12-31T10:00:56.296Z,99104.72
2022-12-31T10:03:37.001Z,99102.06
2022-12-31T10:06:27.303Z,99102.06
2022-12-31T10:09:15.605Z,99101.69
2022-12-31T10:12:03.664Z,99105.31
2022-12-31T10:14:58.177Z,99114.13
2022-12-31T10:17:42.246Z,99121.38
2022-12-31T10:20:33.770Z,99120.03
2022-12-31T10:23:28.571Z,99106.66
2022-12-31T10:26:21.478Z,99116.00
2022-12-31T10:29:04.731Z,99127.44
2022-12-31T10:32:19.422Z,99126.34
2022-12-31T10:35:01.228Z,99138.63
2022-12-31T10:37:47.002Z,99139.47
2022-12-31T10:40:29.130Z,99148.94
2022-12-31T10:43:21.627Z,99144.50
2022-12-31T10:46:28.540Z,99135.72
2022-12-31T10:49:07.297Z,99138.94
2022-12-31T10:51:46.151Z,99136.19
2022-12-31T10:54:31.701Z,99140.53
2022-12-31T10:57:36.774Z,99130.75
2022-12-31T11:00:23.130Z,99134.25
2022-12-31T11:03:37.540Z,99134.25
2022-12-31T11:06:26.602Z,99139.28
2022-12-31T11:09:34.501Z,99139.16
2022-12-31T11:12:11.157Z,99123.66
2022-12-31T11:14:57.924Z,99132.06
2022-12-31T11:17:39.897Z,99127.50
2022-12-31T11:20:23.939Z,99129.63
2022-12-31T11:22:59.838Z,99126.84
2022-12-31T11:26:17.674Z,99128.88
2022-12-31T11:29:38.612Z,99127.66
2022-12-31T11:32:14.140Z,99133.09
2022-12-31T11:35:03.661Z,99131.53
2022-12-31T11:37:48.441Z,99142.94
2022-12-31T11:40:56.554Z,99134.34
2022-12-31T11:43:28.397Z,99149.34
2022-12-31T11:46:19.563Z,99157.28
2022-12-31T11:48:56.654Z,99141.66
2022-12-31T11:51:38.106Z,99149.47
2022-12-31T11:54:26.280Z,99143.81
2022-12-31T11:57:11.263Z,99153.41
2022-12-31T11:59:38.180Z,99167.47
2022-12-31T12:02:28.289Z,99166.63
2022-12-31T12:05:01.695Z,99173.22
2022-12-31T12:07:33.899Z,99176.72
2022-12-31T12:10:04.757Z,99185.50
2022-12-31T12:12:42.503Z,99190.88
2022-12-31T12:15:11.479Z,99195.03
2022-12-31T12:17:39.647Z,99199.19
2022-12-31T12:20:18.949Z,99198.66
2022-12-31T12:22:54.116Z,99190.88
2022-12-31T12:25:24.724Z,99186.88
2022-12-31T12:27:52.441Z,99181.47
2022-12-31T12:30:19.680Z,99184.16
2022-12-31T12:32:58.959Z,99181.75
2022-12-31T12:35:27.673Z,99188.94
2022-12-31T12:38:14.054Z,99197.25
2022-12-31T12:40:41.671Z,99188.00
2022-12-31T12:43:26.488Z,99200.66
2022-12-31T12:45:56.457Z,99210.00
2022-12-31T12:48:35.196Z,99201.00
2022-12-31T12:51:19.411Z,99203.16
2022-12-31T12:53:52.148Z,99205.56
2022-12-31T12:56:45.316Z,99205.78
2022-12-31T12:59:49.637Z,99208.91
2022-12-31T13:02:46.664Z,99206.75
2022-12-31T13:05:34.975Z,99211.41
2022-12-31T13:08:31.007Z,99211.88
2022-12-31T13:11:03.935Z,99225.59
2022-12-31T13:13:33.719Z,99227.75
2022-12-31T13:16:08.475Z,99222.09
2022-12-31T13:19:02.586Z,99230.50
2022-12-31T13:21:52.831Z,99219.69
2022-12-31T13:24:30.993Z,99224.97
2022-12-31T13:27:03.686Z,99229.75
2022-12-31T13:29:35.216Z,99224.91
2022-12-31T13:32:06.021Z,99221.06
2022-12-31T13:34:39.160Z,99228.50
2022-12-31T13:37:28.821Z,99224.63
2022-12-31T13:40:05.250Z,99219.81
2022-12-31T13:42:43.697Z,99227.34
2022-12-31T13:45:17.350Z,99221.00
2022-12-31T13:47:54.365Z,99227.72
2022-12-31T13:50:38.306Z,99225.56
2022-12-31T13:53:27.204Z,99218.91
2022-12-31T13:56:05.453Z,99229.94
2022-12-31T13:58:32.403Z,99231.50
2022-12-31T14:01:12.267Z,99229.31
2022-12-31T14:04:08.482Z,99220.41
2022-12-31T14:06:47.608Z,99232.31
2022-12-31T14:09:27.096Z,99242.66
2022-12-31T14:12:08.662Z,99234.56
2022-12-31T14:14:53.561Z,99226.59
2022-12-31T14:17:39.410Z,99229.25
2022-12-31T14:20:19.077Z,99224.56
2022-12-31T14:22:52.395Z,99218.41
2022-12-31T14:25:44.804Z,99220.22
2022-12-31T14:28:24.452Z,99231.41
2022-12-31T14:30:57.177Z,99237.53
2022-12-31T14:33:30.091Z,99247.16
2022-12-31T14:36:09.947Z,99248.00
2022-12-31T14:38:49.740Z,99242.69
2022-12-31T14:41:22.829Z,99246.06
2022-12-31T14:44:08.654Z,99252.78
2022-12-31T14:46:47.545Z,99250.00
2022-12-31T14:49:14.387Z,99254.19
2022-12-31T14:51:42.104Z,99241.50
2022-12-31T14:54:34.497Z,99247.25
2022-12-31T14:57:24.399Z,99243.34
2022-12-31T14:59:59.324Z,99253.69
2022-12-31T15:02:31.966Z,99257.88
2022-12-31T15:05:11.959Z,99249.81
2022-12-31T15:07:47.837Z,99251.22
2022-12-31T15:10:34.322Z,99264.22
2022-12-31T15:13:14.216Z,99265.88
2022-12-31T15:15:44.293Z,99262.28
2022-12-31T15:18:23.141Z,99261.88
2022-12-31T15:21:13.540Z,99257.44
2022-12-31T15:23:46.474Z,99262.47
2022-12-31T15:26:47.634Z,99267.66
2022-12-31T15:29:36.726Z,99282.47
2022-12-31T15:32:07.863Z,99284.13
2022-12-31T15:34:35.823Z,99274.38
2022-12-31T15:37:06.501Z,99269.91
2022-12-31T15:39:40.557Z,99259.78
2022-12-31T15:42:49.826Z,99267.97
2022-12-31T15:45:41.701Z,99273.06
2022-12-31T15:48:17.895Z,99270.88
2022-12-31T15:50:46.752Z,99271.72
2022-12-31T15:53:39.002Z,99276.06
2022-12-31T15:56:08.517Z,99282.31
2022-12-31T15:58:36.938Z,99279.66
2022-12-31T16:01:24.321Z,99264.59
2022-12-31T16:04:05.932Z,99265.56
2022-12-31T16:06:39.634Z,99259.13
2022-12-31T16:09:20.193Z,99257.19
2022-12-31T16:11:47.707Z,99261.03
2022-12-31T16:14:23.902Z,99259.09
2022-12-31T16:17:01.310Z,99263.78
2022-12-31T16:19:50.091Z,99280.69
2022-12-31T16:22:25.983Z,99286.72
2022-12-31T16:27:45.889Z,99278.50
2022-12-31T16:30:26.169Z,99289.59
2022-12-31T16:33:01.319Z,99285.69
2022-12-31T16:35:32.392Z,99270.75
2022-12-31T16:38:13.066Z,99263.97
2022-12-31T16:40:42.059Z,99267.78
2022-12-31T16:43:29.760Z,99277.00
2022-12-31T16:46:28.407Z,99275.66
2022-12-31T16:48:59.611Z,99262.00
2022-12-31T16:51:29.416Z,99267.88
2022-12-31T16:53:57.357Z,99281.59
2022-12-31T16:56:37.417Z,99282.75
2022-12-31T16:59:14.418Z,99284.19
2022-12-31T17:01:42.953Z,99281.13
2022-12-31T17:04:15.276Z,99271.22
2022-12-31T17:06:43.245Z,99289.16
2022-12-31T17:09:10.402Z,99291.50
2022-12-31T17:11:42.831Z,99287.63
2022-12-31T17:14:09.858Z,99287.22
2022-12-31T17:17:01.389Z,99283.47
2022-12-31T17:19:51.441Z,99288.75
2022-12-31T17:22:34.322Z,99284.88
2022-12-31T17:25:05.889Z,99272.91
2022-12-31T17:27:34.142Z,99257.50
2022-12-31T17:30:22.134Z,99257.25
2022-12-31T17:32:50.673Z,99263.25
2022-12-31T17:35:36.179Z,99265.63
2022-12-31T17:38:23.474Z,99271.53
2022-12-31T17:40:52.622Z,99270.41
2022-12-31T17:43:22.221Z,99275.44
2022-12-31T17:45:51.869Z,99285.06
2022-12-31T17:48:21.926Z,99290.97
2022-12-31T17:50:51.229Z,99295.44
2022-12-31T17:53:18.554Z,99304.81
2022-12-31T17:55:54.710Z,99297.81
2022-12-31T17:58:29.785Z,99300.91
2022-12-31T18:00:58.094Z,99294.63
2022-12-31T18:03:25.249Z,99291.81
2022-12-31T18:05:52.555Z,99294.47
2022-12-31T18:08:20.027Z,99297.00
2022-12-31T18:10:48.136Z,99278.53
2022-12-31T18:13:25.000Z,99282.31
2022-12-31T18:15:53.744Z,99293.09
2022-12-31T18:18:25.511Z,99301.59
2022-12-31T18:21:04.687Z,99305.19
2022-12-31T18:23:41.515Z,99303.38
2022-12-31T18:26:13.921Z,99309.66
2022-12-31T18:28:41.485Z,99318.47
2022-12-31T18:31:16.863Z,99317.19
2022-12-31T18:33:45.740Z,99326.00
2022-12-31T18:36:17.574Z,99328.78
2022-12-31T18:38:44.553Z,99334.09
2022-12-31T18:41:18.404Z,99340.22
2022-12-31T18:43:45.692Z,99341.06
2022-12-31T18:46:23.816Z,99351.44
2022-12-31T18:48:50.849Z,99361.19
2022-12-31T18:51:21.685Z,99357.53
2022-12-31T18:53:51.323Z,99352.94
2022-12-31T18:56:21.851Z,99349.31
2022-12-31T18:58:49.287Z,99344.00
2022-12-31T19:01:32.387Z,99362.72
2022-12-31T19:04:14.460Z,99361.19
2022-12-31T19:06:42.249Z,99359.63
2022-12-31T19:09:30.809Z,99361.44
2022-12-31T19:11:57.056Z,99355.28
2022-12-31T19:14:26.168Z,99346.09
2022-12-31T19:16:57.805Z,99351.97
2022-12-31T19:19:25.581Z,99350.56
2022-12-31T19:21:52.651Z,99348.88
2022-12-31T19:24:26.975Z,99345.25
2022-12-31T19:26:55.124Z,99337.41
2022-12-31T19:29:25.540Z,99339.63
2022-12-31T19:31:52.799Z,99338.22
2022-12-31T19:34:19.857Z,99341.41
2022-12-31T19:36:47.597Z,99337.06
2022-12-31T19:39:20.433Z,99339.16
2022-12-31T19:41:56.646Z,99346.53
2022-12-31T19:44:25.916Z,99340.50
2022-12-31T19:46:53.268Z,99337.41
2022-12-31T19:49:21.065Z,99339.63
2022-12-31T19:51:48.619Z,99352.31
2022-12-31T19:54:16.310Z,99358.47
2022-12-31T19:56:43.496Z,99352.56
2022-12-31T19:59:11.891Z,99359.09
2022-12-31T20:01:39.277Z,99372.34
2022-12-31T20:04:06.489Z,99372.59
2022-12-31T20:06:33.512Z,99373.69
2022-12-31T20:09:00.608Z,99380.81
2022-12-31T20:11:28.049Z,99375.75
2022-12-31T20:13:55.738Z,99379.25
2022-12-31T20:16:27.202Z,99375.66
2022-12-31T20:18:55.160Z,99374.66
2022-12-31T20:21:25.205Z,99380.44
2022-12-31T20:23:54.687Z,99388.88
2022-12-31T20:26:24.023Z,99379.78
2022-12-31T20:28:51.505Z,99377.59
2022-12-31T20:31:23.965Z,99384.47
2022-12-31T20:33:51.614Z,99383.25
2022-12-31T20:36:19.093Z,99386.59
2022-12-31T20:38:46.549Z,99386.75
2022-12-31T20:41:17.343Z,99390.09
2022-12-31T20:43:45.546Z,99398.63
2022-12-31T20:46:22.347Z,99402.13
2022-12-31T20:48:51.399Z,99408.97
2022-12-31T20:51:20.012Z,99404.53
2022-12-31T20:54:02.410Z,99406.78
2022-12-31T20:56:32.829Z,99402.31
2022-12-31T20:59:00.449Z,99404.72
2022-12-31T21:01:41.723Z,99409.91
2022-12-31T21:04:15.757Z,99411.19
2022-12-31T21:06:43.037Z,99409.63
2022-12-31T21:09:10.692Z,99410.47
2022-12-31T21:11:56.282Z,99420.00
2022-12-31T21:14:23.717Z,99425.88
2022-12-31T21:16:51.510Z,99429.94
2022-12-31T21:19:18.644Z,99423.47
2022-12-31T21:21:48.375Z,99424.06
2022-12-31T21:24:23.480Z,99410.81
2022-12-31T21:26:51.486Z,99418.38
2022-12-31T21:29:18.637Z,99411.25
2022-12-31T21:31:45.925Z,99417.13
2022-12-31T21:34:13.106Z,99416.88
2022-12-31T21:36:40.211Z,99419.41
2022-12-31T21:39:07.439Z,99424.72
2022-12-31T21:41:53.008Z,99416.59
2022-12-31T21:44:25.319Z,99415.50
2022-12-31T21:47:34.004Z,99410.44
2022-12-31T21:49:50.162Z,99417.97
2022-12-31T21:52:32.013Z,99417.50
2022-12-31T21:55:19.755Z,99404.75
2022-12-31T21:58:24.156Z,99405.25
2022-12-31T22:00:54.119Z,99403.72
2022-12-31T22:03:32.197Z,99396.56
2022-12-31T22:06:12.661Z,99394.22
2022-12-31T22:08:41.488Z,99389.41
2022-12-31T22:11:09.171Z,99389.78
2022-12-31T22:13:36.750Z,99393.31
2022-12-31T22:16:05.656Z,99401.06
2022-12-31T22:18:35.943Z,99388.13
2022-12-31T22:21:03.961Z,99396.81
2022-12-31T22:23:32.526Z,99407.44
2022-12-31T22:26:00.229Z,99413.25
2022-12-31T22:28:37.964Z,99409.16
2022-12-31T22:31:06.207Z,99411.72
2022-12-31T22:33:33.499Z,99418.59
2022-12-31T22:36:11.075Z,99424.38
2022-12-31T22:38:38.157Z,99416.16
2022-12-31T22:41:26.485Z,99415.81
2022-12-31T22:44:03.172Z,99413.78
2022-12-31T22:46:31.133Z,99412.69
2022-12-31T22:48:59.876Z,99416.53
2022-12-31T22:51:54.791Z,99423.97
2022-12-31T22:54:15.486Z,99421.94
2022-12-31T22:56:42.857Z,99420.38
2022-12-31T22:59:10.044Z,99418.09
2022-12-31T23:01:37.138Z,99422.16
2022-12-31T23:04:04.816Z,99422.41
2022-12-31T23:06:33.057Z,99414.94
2022-12-31T23:09:19.366Z,99413.25
2022-12-31T23:11:46.366Z,99409.41
2022-12-31T23:14:36.470Z,99412.50
2022-12-31T23:17:29.665Z,99407.66
2022-12-31T23:20:18.027Z,99404.44
2022-12-31T23:23:03.950Z,99412.47
2022-12-31T23:25:54.624Z,99412.09
2022-12-31T23:28:24.128Z,99417.63
2022-12-31T23:30:51.984Z,99411.63
2022-12-31T23:33:24.572Z,99411.00
2022-12-31T23:36:01.428Z,99415.66
2022-12-31T23:38:28.320Z,99407.09
2022-12-31T23:40:55.210Z,99410.91
2022-12-31T23:43:22.786Z,99414.75
2022-12-31T23:45:53.005Z,99415.84
2022-12-31T23:48:20.263Z,99417.72
2022-12-31T23:50:53.603Z,99417.94
2022-12-31T23:53:22.302Z,99408.44
2022-12-31T23:55:49.267Z,99411.22
2022-12-31T23:58:16.763Z,99401.72
